createdAt,value
2016-06-06T13:03:52.563Z,2188
2016-06-06T13:04:52.018Z,2184
2016-06-06T13:05:52.256Z,2160
2016-06-06T13:06:54.196Z,2128
2016-06-06T13:07:51.948Z,2124
2016-06-06T13:08:52.139Z,2088
2016-06-06T13:09:52.438Z,2076
2016-06-06T13:10:58.113Z,2056
2016-06-06T13:11:52.287Z,2044
2016-06-06T13:12:52.399Z,2056
2016-06-06T13:13:57.824Z,2096
2016-06-06T13:14:54.296Z,2132
2016-06-06T13:15:52.376Z,2172
2016-06-06T13:16:57.942Z,2236
2016-06-06T13:17:54.897Z,2252
2016-06-06T13:18:54.697Z,2256
2016-06-06T13:19:55.606Z,2208
2016-06-06T13:20:52.421Z,2152
2016-06-06T13:21:52.345Z,2140
2016-06-06T13:22:54.895Z,2148
2016-06-06T13:23:54.508Z,2144
2016-06-06T13:24:58.635Z,2172
2016-06-06T13:25:57.763Z,2200
2016-06-06T13:26:53.391Z,2192
2016-06-06T13:27:58.752Z,2264
2016-06-06T13:28:58.052Z,2312
2016-06-06T13:29:55.695Z,2272
2016-06-06T13:30:52.088Z,2224
2016-06-06T13:31:57.779Z,2216
2016-06-06T13:32:58.469Z,2156
2016-06-06T13:34:05.752Z,2128
2016-06-06T13:34:57.599Z,2144
2016-06-06T13:35:52.055Z,2156
2016-06-06T13:36:55.636Z,2164
2016-06-06T13:37:57.935Z,2152
2016-06-06T13:38:57.829Z,2168
2016-06-06T13:39:55.035Z,2180
2016-06-06T13:40:54.959Z,2156
2016-06-06T13:41:54.415Z,2160
2016-06-06T13:42:54.729Z,2168
2016-06-06T13:43:54.468Z,2128
2016-06-06T13:44:55.486Z,2068
2016-06-06T13:45:52.004Z,2020
2016-06-06T13:46:55.115Z,1964
2016-06-06T13:47:54.291Z,1920
2016-06-06T13:48:54.950Z,1868
2016-06-06T13:49:55.717Z,1808
2016-06-06T13:50:55.173Z,1736
2016-06-06T13:51:55.301Z,1688
2016-06-06T13:52:55.132Z,1632
2016-06-06T13:53:54.713Z,1580
2016-06-06T13:54:54.450Z,1536
2016-06-06T13:55:52.281Z,1496
2016-06-06T13:56:55.486Z,1456
2016-06-06T13:57:54.161Z,1416
2016-06-06T13:58:54.538Z,1384
2016-06-06T13:59:54.322Z,1356
2016-06-06T14:00:56.044Z,1320
2016-06-06T14:01:52.797Z,1300
2016-06-06T14:02:55.409Z,1264
2016-06-06T14:03:54.536Z,1232
2016-06-06T14:04:56.164Z,1212
2016-06-06T14:05:58.777Z,1180
2016-06-06T14:06:54.905Z,1164
2016-06-06T14:07:55.251Z,1140
2016-06-06T14:08:54.988Z,1124
2016-06-06T14:09:54.756Z,1108
2016-06-06T14:10:59.852Z,1084
2016-06-06T14:12:10.730Z,1068
2016-06-06T14:12:55.421Z,1060
2016-06-06T14:13:54.298Z,1048
2016-06-06T14:15:10.395Z,1024
2016-06-06T14:15:56.335Z,1012
2016-06-06T14:16:51.291Z,996
2016-06-06T14:17:55.028Z,984
2016-06-06T14:18:55.248Z,968
2016-06-06T14:19:52.111Z,956
2016-06-06T14:20:54.661Z,944
2016-06-06T14:21:51.491Z,932
2016-06-06T14:22:54.962Z,920
2016-06-06T14:23:51.403Z,904
2016-06-06T14:24:52.234Z,900
2016-06-06T14:25:50.675Z,888
2016-06-06T14:26:51.958Z,876
2016-06-06T14:27:50.725Z,872
2016-06-06T14:28:55.886Z,860
2016-06-06T14:30:51.937Z,844
2016-06-06T14:31:50.612Z,832
2016-06-06T14:32:50.802Z,824
2016-06-06T14:33:51.883Z,820
2016-06-06T14:34:50.869Z,808
2016-06-06T14:35:50.794Z,804
2016-06-06T14:36:50.610Z,796
2016-06-06T14:37:50.675Z,796
2016-06-06T14:38:51.052Z,792
2016-06-06T14:39:51.869Z,784
2016-06-06T14:40:50.761Z,784
2016-06-06T14:42:23.391Z,776
2016-06-06T14:42:50.938Z,776
2016-06-06T14:43:52.113Z,776
2016-06-06T14:44:58.944Z,776
2016-06-06T14:45:52.149Z,772
2016-06-06T14:46:51.012Z,780
2016-06-06T14:47:52.811Z,780
2016-06-06T14:48:50.846Z,780
2016-06-06T14:49:51.364Z,780
2016-06-06T14:50:54.522Z,780
2016-06-06T14:51:50.634Z,784
2016-06-06T14:52:50.465Z,788
2016-06-06T14:53:54.545Z,792
2016-06-06T14:54:50.908Z,796
2016-06-06T14:55:50.989Z,800
2016-06-06T14:56:54.883Z,804
2016-06-06T14:57:50.697Z,812
2016-06-06T14:58:50.404Z,816
2016-06-06T14:59:54.531Z,820
2016-06-06T15:00:50.909Z,824
2016-06-06T15:01:50.880Z,832
2016-06-06T15:02:51.805Z,836
2016-06-06T15:03:50.745Z,840
2016-06-06T15:04:50.404Z,844
2016-06-06T15:05:50.485Z,852
2016-06-06T15:06:51.878Z,856
2016-06-06T15:07:50.599Z,864
2016-06-06T15:08:50.712Z,868
2016-06-06T15:09:50.933Z,876
2016-06-06T15:10:50.654Z,884
2016-06-06T15:11:50.626Z,888
2016-06-06T15:12:54.332Z,896
2016-06-06T15:13:50.709Z,904
2016-06-06T15:14:50.837Z,916
2016-06-06T15:15:50.855Z,924
2016-06-06T15:16:50.217Z,940
2016-06-06T15:17:50.501Z,948
2016-06-06T15:18:50.692Z,956
2016-06-06T15:19:50.835Z,972
2016-06-06T15:20:50.526Z,984
2016-06-06T15:21:50.684Z,1004
2016-06-06T15:22:50.578Z,1016
2016-06-06T15:23:50.252Z,1032
2016-06-06T15:24:50.584Z,1052
2016-06-06T15:25:49.648Z,1068
2016-06-06T15:26:50.338Z,1084
2016-06-06T15:27:50.044Z,1108
2016-06-06T15:28:49.500Z,1128
2016-06-06T15:29:51.893Z,1148
2016-06-06T15:30:50.912Z,1172
2016-06-06T15:31:51.211Z,1204
2016-06-06T15:32:50.026Z,1228
2016-06-06T15:33:49.575Z,1264
2016-06-06T15:34:49.657Z,1296
2016-06-06T15:35:49.644Z,1324
2016-06-06T15:36:49.709Z,1360
2016-06-06T15:37:49.524Z,1392
2016-06-06T15:38:49.871Z,1428
2016-06-06T15:39:49.592Z,1456
2016-06-06T15:40:49.547Z,1488
2016-06-06T15:41:49.754Z,1520
2016-06-06T15:42:50.724Z,1548
2016-06-06T15:43:49.524Z,1580
2016-06-06T15:44:50.637Z,1616
2016-06-06T15:45:51.530Z,1656
2016-06-06T15:46:49.705Z,1688
2016-06-06T15:47:50.676Z,1724
2016-06-06T15:48:49.851Z,1768
2016-06-06T15:49:49.791Z,1804
2016-06-06T15:50:49.935Z,1836
2016-06-06T15:51:49.499Z,1868
2016-06-06T15:52:49.409Z,1904
2016-06-06T15:53:49.301Z,1928
2016-06-06T15:54:49.367Z,1968
2016-06-06T15:55:49.448Z,1996
2016-06-06T15:57:49.390Z,2072
2016-06-06T15:58:49.315Z,2116
2016-06-06T15:59:50.068Z,2152
2016-06-06T16:00:50.055Z,2192
2016-06-06T16:01:49.151Z,2220
2016-06-06T16:02:49.467Z,2244
2016-06-06T16:03:49.281Z,2272
2016-06-06T16:04:49.519Z,2300
2016-06-06T16:05:49.240Z,2300
2016-06-06T16:06:49.086Z,2304
2016-06-06T16:07:49.308Z,2292
2016-06-06T16:08:49.436Z,2288
2016-06-06T16:09:49.486Z,2288
2016-06-06T16:10:49.035Z,2268
2016-06-06T16:11:49.085Z,2256
2016-06-06T16:12:49.291Z,2244
2016-06-06T16:13:49.153Z,2244
2016-06-06T16:14:52.233Z,2228
2016-06-06T16:15:49.111Z,2232
2016-06-06T16:16:49.223Z,2228
2016-06-06T16:17:49.522Z,2232
2016-06-06T16:18:49.182Z,2228
2016-06-06T16:19:49.091Z,2216
2016-06-06T16:20:49.187Z,2196
2016-06-06T16:21:49.096Z,2164
2016-06-06T16:22:48.974Z,2132
2016-06-06T16:23:48.960Z,2112
2016-06-06T16:24:48.932Z,2112
2016-06-06T16:25:48.873Z,2112
2016-06-06T16:26:49.218Z,2108
2016-06-06T16:27:48.721Z,2100
2016-06-06T16:28:48.881Z,2072
2016-06-06T16:29:50.070Z,2048
2016-06-06T16:30:49.057Z,2056
2016-06-06T16:31:48.810Z,2020
2016-06-06T16:32:49.062Z,1996
2016-06-06T16:33:48.753Z,1980
2016-06-06T16:34:48.678Z,1940
2016-06-06T16:35:49.025Z,1888
2016-06-06T16:36:48.777Z,1836
2016-06-06T16:37:48.889Z,1788
2016-06-06T16:38:49.611Z,1796
2016-06-06T16:39:48.644Z,1788
2016-06-06T16:40:54.803Z,1812
2016-06-06T16:41:48.634Z,1852
2016-06-06T16:42:48.860Z,1960
2016-06-06T16:43:48.618Z,2112
2016-06-06T16:44:49.047Z,2044
2016-06-06T16:45:48.696Z,1864
2016-06-06T16:46:48.875Z,1752
2016-06-06T16:47:48.787Z,1680
2016-06-06T16:48:48.994Z,1624
2016-06-06T16:49:49.137Z,1540
2016-06-06T16:50:49.205Z,1584
2016-06-06T16:51:48.443Z,1448
2016-06-06T16:52:49.463Z,1596
2016-06-06T16:53:48.622Z,1532
2016-06-06T16:54:48.720Z,1412
2016-06-06T16:55:51.926Z,1368
2016-06-06T16:56:49.211Z,1448
2016-06-06T16:57:48.652Z,1448
2016-06-06T16:58:48.935Z,1476
2016-06-06T16:59:50.658Z,1516
2016-06-06T17:00:48.911Z,1608
2016-06-06T17:01:48.789Z,1668
2016-06-06T17:02:49.511Z,1500
2016-06-06T17:03:49.888Z,1432
2016-06-06T17:04:48.609Z,1432
2016-06-06T17:05:48.736Z,1428
2016-06-06T17:06:48.787Z,1416
2016-06-06T17:07:49.555Z,1408
2016-06-06T17:08:49.136Z,1432
2016-06-06T17:09:48.576Z,1456
2016-06-06T17:10:48.500Z,1516
2016-06-06T17:11:48.706Z,1448
2016-06-06T17:12:48.584Z,1428
2016-06-06T17:13:48.977Z,1396
2016-06-06T17:14:49.761Z,1364
2016-06-06T17:15:50.249Z,1360
2016-06-06T17:16:48.501Z,1344
2016-06-06T17:17:48.410Z,1388
2016-06-06T17:18:48.585Z,1376
2016-06-06T17:19:48.462Z,1224
2016-06-06T17:20:48.793Z,1124
2016-06-06T17:21:48.327Z,1104
2016-06-06T17:22:48.549Z,1064
2016-06-06T17:23:48.629Z,1036
2016-06-06T17:24:48.538Z,992
2016-06-06T17:25:48.665Z,956
2016-06-06T17:26:48.715Z,924
2016-06-06T17:27:48.453Z,920
2016-06-06T17:28:48.361Z,876
2016-06-06T17:29:48.865Z,860
2016-06-06T17:30:47.992Z,856
2016-06-06T17:31:48.291Z,864
2016-06-06T17:32:51.795Z,888
2016-06-06T17:33:48.531Z,904
2016-06-06T17:34:48.471Z,920
2016-06-06T17:35:49.052Z,944
2016-06-06T17:36:51.586Z,960
2016-06-06T17:37:48.572Z,952
2016-06-06T17:38:48.983Z,956
2016-06-06T17:39:49.125Z,944
2016-06-06T17:40:48.252Z,948
2016-06-06T17:42:02.147Z,940
2016-06-06T17:42:48.118Z,932
2016-06-06T17:43:48.183Z,884
2016-06-06T17:44:49.841Z,848
2016-06-06T17:45:48.564Z,828
2016-06-06T17:46:48.144Z,812
2016-06-06T17:47:48.115Z,784
2016-06-06T17:48:48.306Z,764
2016-06-06T17:49:48.590Z,752
2016-06-06T17:50:48.435Z,736
2016-06-06T17:51:48.204Z,720
2016-06-06T17:52:49.863Z,712
2016-06-06T17:53:48.069Z,692
2016-06-06T17:54:48.478Z,676
2016-06-06T17:55:48.340Z,664
2016-06-06T17:56:48.343Z,664
2016-06-06T17:57:48.220Z,664
2016-06-06T17:58:47.848Z,664
2016-06-06T17:59:48.226Z,656
2016-06-06T18:00:47.995Z,652
2016-06-06T18:01:47.575Z,644
2016-06-06T18:02:48.531Z,632
2016-06-06T18:03:47.940Z,624
2016-06-06T18:04:50.927Z,616
2016-06-06T18:05:48.773Z,612
2016-06-06T18:06:51.745Z,608
2016-06-06T18:07:48.919Z,604
2016-06-06T18:08:51.328Z,600
2016-06-06T18:09:48.987Z,592
2016-06-06T18:10:50.802Z,588
2016-06-06T18:11:48.617Z,576
2016-06-06T18:12:51.152Z,564
2016-06-06T18:13:48.233Z,552
2016-06-06T18:14:48.704Z,540
2016-06-06T18:15:58.035Z,524
2016-06-06T18:16:51.741Z,508
2016-06-06T18:17:48.399Z,496
2016-06-06T18:18:48.199Z,484
2016-06-06T18:19:48.858Z,468
2016-06-06T18:20:51.971Z,452
2016-06-06T18:21:48.957Z,444
2016-06-06T18:22:49.147Z,432
2016-06-06T18:23:47.649Z,420
2016-06-06T18:24:48.732Z,408
2016-06-06T18:25:48.498Z,396
2016-06-06T18:26:49.157Z,388
2016-06-06T18:27:48.614Z,380
2016-06-06T18:28:47.773Z,368
2016-06-06T18:29:47.603Z,364
2016-06-06T18:30:48.404Z,356
2016-06-06T18:31:47.484Z,352
2016-06-06T18:32:48.533Z,348
2016-06-06T18:33:47.676Z,344
2016-06-06T18:34:47.758Z,340
2016-06-06T18:35:47.589Z,336
2016-06-06T18:36:47.466Z,328
2016-06-06T18:37:47.391Z,320
2016-06-06T18:38:47.753Z,312
2016-06-06T18:39:48.958Z,308
2016-06-06T18:40:47.945Z,304
2016-06-06T18:41:47.636Z,300
2016-06-06T18:42:47.450Z,296
2016-06-06T18:43:47.423Z,288
2016-06-06T18:44:48.503Z,284
2016-06-06T18:45:47.866Z,272
2016-06-06T18:46:47.805Z,264
2016-06-06T18:47:47.574Z,256
2016-06-06T18:48:47.733Z,248
2016-06-06T18:49:47.407Z,240
2016-06-06T18:50:48.129Z,232
2016-06-06T18:51:47.741Z,224
2016-06-06T18:52:47.760Z,220
2016-06-06T18:53:47.387Z,212
2016-06-06T18:54:47.545Z,208
2016-06-06T18:55:47.940Z,200
2016-06-06T18:56:47.942Z,196
2016-06-06T18:57:46.773Z,192
2016-06-06T18:58:47.291Z,184
2016-06-06T18:59:47.746Z,180
2016-06-06T19:00:47.608Z,172
2016-06-06T19:01:47.533Z,168
2016-06-06T19:02:47.926Z,164
2016-06-06T19:03:47.539Z,160
2016-06-06T19:04:47.416Z,156
2016-06-06T19:05:47.762Z,152
2016-06-06T19:06:47.562Z,144
2016-06-06T19:07:47.612Z,144
2016-06-06T19:08:47.755Z,140
2016-06-06T19:09:47.602Z,132
2016-06-06T19:10:48.308Z,128
2016-06-06T19:11:47.748Z,120
2016-06-06T19:12:47.641Z,120
2016-06-06T19:13:47.909Z,112
2016-06-06T19:14:47.615Z,108
2016-06-06T19:15:47.400Z,104
2016-06-06T19:16:48.636Z,100
2016-06-06T19:17:48.577Z,96
2016-06-06T19:18:47.563Z,92
2016-06-06T19:19:47.285Z,88
2016-06-06T19:20:47.178Z,84
2016-06-06T19:21:47.447Z,76
2016-06-06T19:22:45.746Z,76
2016-06-06T19:23:46.765Z,72
2016-06-06T19:24:46.595Z,68
2016-06-06T19:25:47.051Z,68
2016-06-06T19:26:46.882Z,64
2016-06-06T19:27:46.525Z,60
2016-06-06T19:28:46.684Z,56
2016-06-06T19:29:46.390Z,56
2016-06-06T19:30:46.487Z,52
2016-06-06T19:31:46.223Z,48
2016-06-06T19:32:46.523Z,48
2016-06-06T19:33:46.260Z,44
2016-06-06T19:34:47.434Z,40
2016-06-06T19:35:47.593Z,36
2016-06-06T19:36:46.471Z,32
2016-06-06T19:37:46.568Z,32
2016-06-06T19:38:46.398Z,28
2016-06-06T19:39:46.339Z,28
2016-06-06T19:40:45.826Z,24
2016-06-06T19:41:45.984Z,24
2016-06-06T19:42:45.737Z,20
2016-06-06T19:43:45.865Z,20
2016-06-06T19:44:46.789Z,20
2016-06-06T19:45:45.917Z,20
2016-06-06T19:46:45.780Z,16
2016-06-06T19:47:45.907Z,12
2016-06-06T19:48:45.691Z,12
2016-06-06T19:49:45.755Z,12
2016-06-06T19:50:45.946Z,8
2016-06-06T19:51:45.886Z,12
2016-06-06T19:53:00.046Z,12
2016-06-06T19:53:45.704Z,8
2016-06-06T19:54:45.426Z,12
2016-06-06T19:55:45.569Z,8
2016-06-06T19:56:45.932Z,8
2016-06-06T19:57:45.574Z,8
2016-06-06T19:58:45.609Z,4
2016-06-06T19:59:45.501Z,8
2016-06-06T20:00:45.504Z,4
2016-06-06T20:01:45.601Z,4
2016-06-06T20:02:46.619Z,4
2016-06-06T20:03:45.809Z,4
2016-06-06T20:04:45.876Z,4
2016-06-06T20:05:47.439Z,4
2016-06-06T20:06:45.459Z,0
2016-06-06T20:07:46.258Z,0
2016-06-06T20:08:46.854Z,4
2016-06-06T20:09:46.309Z,0
2016-06-06T20:10:45.859Z,0
2016-06-06T20:11:45.831Z,0
2016-06-06T20:12:46.692Z,0
2016-06-06T20:13:47.227Z,4
2016-06-06T20:14:46.417Z,4
2016-06-06T20:15:46.294Z,0
2016-06-06T20:16:45.422Z,0
2016-06-06T20:17:47.175Z,0
2016-06-06T20:18:46.069Z,0
2016-06-06T20:19:46.133Z,0
2016-06-06T20:20:47.106Z,0
2016-06-06T20:21:45.155Z,0
2016-06-06T20:22:45.626Z,0
2016-06-06T20:23:45.504Z,0
2016-06-06T20:24:45.772Z,0
2016-06-06T20:25:45.384Z,0
2016-06-06T20:26:45.855Z,0
2016-06-06T20:27:45.374Z,0
2016-06-06T20:28:45.549Z,0
2016-06-06T20:29:45.270Z,0
2016-06-06T20:30:46.148Z,0
2016-06-06T20:31:45.151Z,0
2016-06-06T20:32:45.732Z,0
2016-06-06T20:33:45.000Z,0
2016-06-06T20:34:48.581Z,0
2016-06-06T20:35:46.864Z,0
2016-06-06T20:36:45.898Z,0
2016-06-06T20:37:46.182Z,0
2016-06-06T20:38:46.841Z,0
2016-06-06T20:39:49.437Z,0
2016-06-06T20:40:46.065Z,0
2016-06-06T20:41:45.318Z,0
2016-06-06T20:42:46.461Z,0
2016-06-06T20:43:48.198Z,0
2016-06-06T20:44:47.060Z,0
2016-06-06T20:45:45.735Z,0
2016-06-06T20:46:45.206Z,0
2016-06-06T20:47:47.881Z,0
2016-06-06T20:48:47.664Z,0
2016-06-06T20:49:49.917Z,0
2016-06-06T20:50:49.763Z,0
2016-06-06T20:51:48.469Z,0
2016-06-06T20:52:48.004Z,0
2016-06-06T20:54:00.663Z,0
2016-06-06T20:54:46.165Z,0
2016-06-06T20:55:47.715Z,0
2016-06-06T20:56:45.577Z,0
2016-06-06T20:57:47.799Z,0
2016-06-06T20:58:45.035Z,0
2016-06-06T20:59:47.663Z,0
2016-06-06T21:00:47.713Z,0
2016-06-06T21:01:47.513Z,0
2016-06-06T21:02:45.688Z,0
2016-06-06T21:03:47.548Z,0
2016-06-06T21:04:47.676Z,0
2016-06-06T21:05:46.024Z,0
2016-06-06T21:07:00.323Z,0
2016-06-06T21:07:57.731Z,0
2016-06-06T21:08:47.953Z,0
2016-06-06T21:09:47.643Z,0
2016-06-06T21:10:47.599Z,0
2016-06-06T21:11:47.570Z,0
2016-06-06T21:12:47.433Z,0
2016-06-06T21:13:45.592Z,0
2016-06-06T21:14:45.157Z,0
2016-06-06T21:15:44.987Z,0
2016-06-06T21:16:44.347Z,0
2016-06-06T21:17:44.805Z,0
2016-06-06T21:18:45.496Z,0
2016-06-06T21:19:46.841Z,0
2016-06-06T21:20:48.391Z,0
2016-06-06T21:21:44.563Z,0
2016-06-06T21:22:44.738Z,0
2016-06-06T21:23:44.960Z,0
2016-06-06T21:24:46.340Z,0
2016-06-06T21:25:44.621Z,0
2016-06-06T21:26:44.389Z,0
2016-06-06T21:27:44.158Z,0
2016-06-06T21:28:47.897Z,0
2016-06-06T21:29:44.319Z,0
2016-06-06T21:30:44.713Z,0
2016-06-06T21:31:44.371Z,0
2016-06-06T21:32:44.421Z,0
2016-06-06T21:33:45.376Z,0
2016-06-06T21:34:44.645Z,0
2016-06-06T21:35:44.195Z,0
2016-06-06T21:36:44.916Z,0
2016-06-06T21:37:45.153Z,0
2016-06-06T21:38:44.125Z,0
2016-06-06T21:39:45.659Z,0
2016-06-06T21:40:44.084Z,0
2016-06-06T21:41:44.664Z,0
2016-06-06T21:42:44.089Z,0
2016-06-06T21:43:44.653Z,0
2016-06-06T21:44:44.391Z,0
2016-06-06T21:45:47.864Z,0
2016-06-06T21:46:43.833Z,0
2016-06-06T21:47:44.055Z,0
2016-06-06T21:48:44.089Z,0
2016-06-06T21:49:44.326Z,0
2016-06-06T21:50:44.485Z,0
2016-06-06T21:51:44.285Z,0
2016-06-06T21:52:44.303Z,0
2016-06-06T21:53:44.775Z,0
2016-06-06T21:54:44.214Z,0
2016-06-06T21:55:44.624Z,0
2016-06-06T21:56:44.188Z,0
2016-06-06T21:57:44.410Z,0
2016-06-06T21:58:44.194Z,0
2016-06-06T21:59:44.291Z,0
2016-06-06T22:00:44.324Z,0
2016-06-06T22:01:44.140Z,0
2016-06-06T22:02:44.455Z,0
2016-06-06T22:03:43.943Z,0
2016-06-06T22:04:45.960Z,0
2016-06-06T22:05:44.010Z,0
2016-06-06T22:06:44.137Z,0
2016-06-06T22:07:44.312Z,0
2016-06-06T22:08:44.034Z,0
2016-06-06T22:09:43.365Z,0
2016-06-06T22:10:43.382Z,0
2016-06-06T22:11:44.385Z,0
2016-06-06T22:12:44.357Z,0
2016-06-06T22:13:43.532Z,0
2016-06-06T22:14:44.003Z,0
2016-06-06T22:15:43.865Z,0
2016-06-06T22:16:43.196Z,0
2016-06-06T22:17:43.620Z,0
2016-06-06T22:18:44.372Z,0
2016-06-06T22:19:43.751Z,0
2016-06-06T22:20:43.191Z,0
2016-06-06T22:21:43.897Z,0
2016-06-06T22:22:43.571Z,0
2016-06-06T22:23:43.058Z,0
2016-06-06T22:24:43.858Z,0
2016-06-06T22:25:44.502Z,0
2016-06-06T22:26:42.988Z,0
2016-06-06T22:27:43.085Z,0
2016-06-06T22:28:44.493Z,0
2016-06-06T22:29:42.949Z,0
2016-06-06T22:30:42.968Z,0
2016-06-06T22:31:43.189Z,0
2016-06-06T22:32:43.786Z,0
2016-06-06T22:33:43.054Z,0
2016-06-06T22:34:42.947Z,0
2016-06-06T22:35:43.404Z,0
2016-06-06T22:37:43.127Z,0
2016-06-06T22:38:42.880Z,0
2016-06-06T22:39:43.429Z,0
2016-06-06T22:40:43.167Z,0
2016-06-06T22:41:42.982Z,0
2016-06-06T22:42:44.078Z,0
2016-06-06T22:43:44.096Z,0
2016-06-06T22:44:42.723Z,0
2016-06-06T22:45:43.195Z,0
2016-06-06T22:46:44.542Z,0
2016-06-06T22:47:44.998Z,0
2016-06-06T22:48:42.626Z,0
2016-06-06T22:49:42.987Z,0
2016-06-06T22:50:43.849Z,0
2016-06-06T22:51:43.055Z,0
2016-06-06T22:52:42.902Z,0
2016-06-06T22:53:43.905Z,0
2016-06-06T22:54:42.486Z,0
2016-06-06T22:55:42.644Z,0
2016-06-06T22:56:44.335Z,0
2016-06-06T22:57:42.852Z,0
2016-06-06T22:58:42.450Z,0
2016-06-06T22:59:42.436Z,0
2016-06-06T23:00:42.501Z,0
2016-06-06T23:01:42.707Z,0
2016-06-06T23:02:42.397Z,0
2016-06-06T23:03:42.354Z,0
2016-06-06T23:04:42.310Z,0
2016-06-06T23:05:42.671Z,0
2016-06-06T23:06:42.315Z,0
2016-06-06T23:07:42.646Z,0
2016-06-06T23:08:42.289Z,0
2016-06-06T23:09:42.557Z,0
2016-06-06T23:10:42.247Z,0
2016-06-06T23:11:42.187Z,0
2016-06-06T23:12:42.237Z,0
2016-06-06T23:13:42.459Z,0
2016-06-06T23:14:42.134Z,0
2016-06-06T23:15:42.136Z,0
2016-06-06T23:16:42.107Z,0
2016-06-06T23:17:42.187Z,0
2016-06-06T23:18:42.332Z,0
2016-06-06T23:19:42.350Z,0
2016-06-06T23:20:42.211Z,0
2016-06-06T23:21:42.089Z,0
2016-06-06T23:22:42.014Z,0
2016-06-06T23:23:41.986Z,0
2016-06-06T23:24:42.003Z,0
2016-06-06T23:25:42.241Z,0
2016-06-06T23:26:41.931Z,0
2016-06-06T23:27:41.980Z,0
2016-06-06T23:28:41.889Z,0
2016-06-06T23:29:41.923Z,0
2016-06-06T23:30:41.847Z,0
2016-06-06T23:31:42.257Z,0
2016-06-06T23:32:41.932Z,0
2016-06-06T23:33:41.809Z,0
2016-06-06T23:34:41.765Z,0
2016-06-06T23:35:42.065Z,0
2016-06-06T23:36:41.755Z,0
2016-06-06T23:37:42.023Z,0
2016-06-06T23:38:41.744Z,0
2016-06-06T23:39:41.794Z,0
2016-06-06T23:40:44.703Z,0
2016-06-06T23:41:41.752Z,0
2016-06-06T23:42:41.709Z,0
2016-06-06T23:43:42.054Z,0
2016-06-06T23:44:42.276Z,0
2016-06-06T23:45:41.576Z,0
2016-06-06T23:46:41.641Z,0
2016-06-06T23:47:41.956Z,0
2016-06-06T23:48:41.521Z,0
2016-06-06T23:49:41.820Z,0
2016-06-06T23:50:41.792Z,0
2016-06-06T23:51:42.092Z,0
2016-06-06T23:52:41.532Z,0
2016-06-06T23:53:41.442Z,0
2016-06-06T23:54:41.569Z,0
2016-06-06T23:55:42.087Z,0
2016-06-06T23:56:41.386Z,0
2016-06-06T23:57:41.561Z,0
2016-06-06T23:58:44.720Z,0
2016-06-06T23:59:42.411Z,0
